sensor_id;sensor_type;location;lat;lon;timestamp;temperature;humidity
48579;DHT22;34357;51.948;6.132;2023-04-06T00:01:37;2.40;73.90
48579;DHT22;34357;51.948;6.132;2023-04-06T00:04:02;2.40;74.40
48579;DHT22;34357;51.948;6.132;2023-04-06T00:06:28;2.30;74.80
48579;DHT22;34357;51.948;6.132;2023-04-06T00:08:55;2.30;75.20
48579;DHT22;34357;51.948;6.132;2023-04-06T00:11:21;2.30;75.40
48579;DHT22;34357;51.948;6.132;2023-04-06T00:13:46;2.20;75.60
48579;DHT22;34357;51.948;6.132;2023-04-06T00:16:12;2.20;75.60
48579;DHT22;34357;51.948;6.132;2023-04-06T00:18:38;2.20;75.40
48579;DHT22;34357;51.948;6.132;2023-04-06T00:21:04;2.20;75.70
48579;DHT22;34357;51.948;6.132;2023-04-06T00:23:30;2.20;75.90
48579;DHT22;34357;51.948;6.132;2023-04-06T00:25:55;2.20;75.30
48579;DHT22;34357;51.948;6.132;2023-04-06T00:28:21;2.10;75.40
48579;DHT22;34357;51.948;6.132;2023-04-06T00:30:51;2.10;75.20
48579;DHT22;34357;51.948;6.132;2023-04-06T00:33:19;2.10;75.20
48579;DHT22;34357;51.948;6.132;2023-04-06T00:35:45;2.10;75.40
48579;DHT22;34357;51.948;6.132;2023-04-06T00:38:11;2.10;75.90
48579;DHT22;34357;51.948;6.132;2023-04-06T00:40:37;2.00;75.90
48579;DHT22;34357;51.948;6.132;2023-04-06T00:43:05;1.90;76.10
48579;DHT22;34357;51.948;6.132;2023-04-06T00:45:32;1.90;76.20
48579;DHT22;34357;51.948;6.132;2023-04-06T00:47:58;1.90;76.50
48579;DHT22;34357;51.948;6.132;2023-04-06T00:50:23;1.90;76.80
48579;DHT22;34357;51.948;6.132;2023-04-06T00:52:50;1.80;77.00
48579;DHT22;34357;51.948;6.132;2023-04-06T00:55:18;1.80;77.10
48579;DHT22;34357;51.948;6.132;2023-04-06T00:57:44;1.80;77.60
48579;DHT22;34357;51.948;6.132;2023-04-06T01:00:11;1.80;77.40
48579;DHT22;34357;51.948;6.132;2023-04-06T01:02:38;1.80;76.90
48579;DHT22;34357;51.948;6.132;2023-04-06T01:05:04;1.80;76.60
48579;DHT22;34357;51.948;6.132;2023-04-06T01:07:39;1.70;77.10
48579;DHT22;34357;51.948;6.132;2023-04-06T01:10:10;1.70;77.20
48579;DHT22;34357;51.948;6.132;2023-04-06T01:12:37;1.70;77.30
48579;DHT22;34357;51.948;6.132;2023-04-06T01:15:13;1.60;77.50
48579;DHT22;34357;51.948;6.132;2023-04-06T01:17:43;1.60;77.80
48579;DHT22;34357;51.948;6.132;2023-04-06T01:20:13;1.50;77.80
48579;DHT22;34357;51.948;6.132;2023-04-06T01:22:39;1.50;77.90
48579;DHT22;34357;51.948;6.132;2023-04-06T01:25:06;1.40;77.80
48579;DHT22;34357;51.948;6.132;2023-04-06T01:27:41;1.40;77.80
48579;DHT22;34357;51.948;6.132;2023-04-06T01:30:11;1.30;77.60
48579;DHT22;34357;51.948;6.132;2023-04-06T01:32:43;1.30;77.10
48579;DHT22;34357;51.948;6.132;2023-04-06T01:35:12;1.30;76.90
48579;DHT22;34357;51.948;6.132;2023-04-06T01:37:44;1.30;76.70
48579;DHT22;34357;51.948;6.132;2023-04-06T01:40:14;1.30;77.50
48579;DHT22;34357;51.948;6.132;2023-04-06T01:42:47;1.30;77.70
48579;DHT22;34357;51.948;6.132;2023-04-06T01:45:20;1.30;77.80
48579;DHT22;34357;51.948;6.132;2023-04-06T01:47:47;1.20;77.50
48579;DHT22;34357;51.948;6.132;2023-04-06T01:50:13;1.10;77.60
48579;DHT22;34357;51.948;6.132;2023-04-06T01:52:43;1.20;77.80
48579;DHT22;34357;51.948;6.132;2023-04-06T01:55:10;1.10;78.00
48579;DHT22;34357;51.948;6.132;2023-04-06T01:57:56;1.10;78.60
48579;DHT22;34357;51.948;6.132;2023-04-06T02:00:31;1.10;78.50
48579;DHT22;34357;51.948;6.132;2023-04-06T02:02:57;1.10;78.80
48579;DHT22;34357;51.948;6.132;2023-04-06T02:05:26;1.10;79.30
48579;DHT22;34357;51.948;6.132;2023-04-06T02:07:53;1.10;79.60
48579;DHT22;34357;51.948;6.132;2023-04-06T02:10:26;1.10;79.60
48579;DHT22;34357;51.948;6.132;2023-04-06T02:12:52;1.10;79.50
48579;DHT22;34357;51.948;6.132;2023-04-06T02:15:24;1.00;79.50
48579;DHT22;34357;51.948;6.132;2023-04-06T02:17:51;1.00;79.70
48579;DHT22;34357;51.948;6.132;2023-04-06T02:20:16;1.00;79.90
48579;DHT22;34357;51.948;6.132;2023-04-06T02:22:42;0.90;80.30
48579;DHT22;34357;51.948;6.132;2023-04-06T02:25:08;0.90;80.50
48579;DHT22;34357;51.948;6.132;2023-04-06T02:27:34;0.90;80.80
48579;DHT22;34357;51.948;6.132;2023-04-06T02:30:00;0.90;80.70
48579;DHT22;34357;51.948;6.132;2023-04-06T02:32:26;0.90;80.80
48579;DHT22;34357;51.948;6.132;2023-04-06T02:34:52;0.80;80.90
48579;DHT22;34357;51.948;6.132;2023-04-06T02:37:20;0.80;80.90
48579;DHT22;34357;51.948;6.132;2023-04-06T02:39:46;0.80;80.90
48579;DHT22;34357;51.948;6.132;2023-04-06T02:42:12;0.80;80.90
48579;DHT22;34357;51.948;6.132;2023-04-06T02:44:38;0.80;80.90
48579;DHT22;34357;51.948;6.132;2023-04-06T02:47:04;0.80;80.90
48579;DHT22;34357;51.948;6.132;2023-04-06T02:49:30;0.90;81.30
48579;DHT22;34357;51.948;6.132;2023-04-06T02:51:57;0.90;81.00
48579;DHT22;34357;51.948;6.132;2023-04-06T02:54:30;0.80;80.70
48579;DHT22;34357;51.948;6.132;2023-04-06T02:56:56;0.80;81.00
48579;DHT22;34357;51.948;6.132;2023-04-06T02:59:28;0.80;81.10
48579;DHT22;34357;51.948;6.132;2023-04-06T03:02:02;0.70;81.10
48579;DHT22;34357;51.948;6.132;2023-04-06T03:04:28;0.70;81.20
48579;DHT22;34357;51.948;6.132;2023-04-06T03:06:56;0.80;81.30
48579;DHT22;34357;51.948;6.132;2023-04-06T03:09:32;0.80;81.20
48579;DHT22;34357;51.948;6.132;2023-04-06T03:11:58;0.70;81.10
48579;DHT22;34357;51.948;6.132;2023-04-06T03:14:24;0.80;81.10
48579;DHT22;34357;51.948;6.132;2023-04-06T03:16:50;0.80;81.10
48579;DHT22;34357;51.948;6.132;2023-04-06T03:19:19;0.70;80.90
48579;DHT22;34357;51.948;6.132;2023-04-06T03:21:45;0.70;80.80
48579;DHT22;34357;51.948;6.132;2023-04-06T03:24:12;0.70;80.80
48579;DHT22;34357;51.948;6.132;2023-04-06T03:26:39;0.70;81.00
48579;DHT22;34357;51.948;6.132;2023-04-06T03:29:07;0.70;80.90
48579;DHT22;34357;51.948;6.132;2023-04-06T03:31:32;0.70;81.00
48579;DHT22;34357;51.948;6.132;2023-04-06T03:34:06;0.60;81.00
48579;DHT22;34357;51.948;6.132;2023-04-06T03:36:35;0.70;81.00
48579;DHT22;34357;51.948;6.132;2023-04-06T03:39:02;0.60;81.10
48579;DHT22;34357;51.948;6.132;2023-04-06T03:41:31;0.60;81.30
48579;DHT22;34357;51.948;6.132;2023-04-06T03:44:10;0.60;81.40
48579;DHT22;34357;51.948;6.132;2023-04-06T03:46:36;0.60;81.50
48579;DHT22;34357;51.948;6.132;2023-04-06T03:49:02;0.60;81.80
48579;DHT22;34357;51.948;6.132;2023-04-06T03:51:28;0.60;81.70
48579;DHT22;34357;51.948;6.132;2023-04-06T03:53:54;0.60;81.80
48579;DHT22;34357;51.948;6.132;2023-04-06T03:56:20;0.60;81.80
48579;DHT22;34357;51.948;6.132;2023-04-06T03:58:46;0.60;81.80
48579;DHT22;34357;51.948;6.132;2023-04-06T04:01:16;0.60;81.70
48579;DHT22;34357;51.948;6.132;2023-04-06T04:03:42;0.60;81.90
48579;DHT22;34357;51.948;6.132;2023-04-06T04:06:08;0.60;81.70
48579;DHT22;34357;51.948;6.132;2023-04-06T04:08:33;0.60;81.70
48579;DHT22;34357;51.948;6.132;2023-04-06T04:11:01;0.60;81.60
48579;DHT22;34357;51.948;6.132;2023-04-06T04:13:27;0.60;81.60
48579;DHT22;34357;51.948;6.132;2023-04-06T04:15:52;0.60;81.40
48579;DHT22;34357;51.948;6.132;2023-04-06T04:18:18;0.60;81.40
48579;DHT22;34357;51.948;6.132;2023-04-06T04:20:44;0.60;81.70
48579;DHT22;34357;51.948;6.132;2023-04-06T04:23:11;0.60;81.50
48579;DHT22;34357;51.948;6.132;2023-04-06T04:25:37;0.60;81.50
48579;DHT22;34357;51.948;6.132;2023-04-06T04:28:03;0.60;81.60
48579;DHT22;34357;51.948;6.132;2023-04-06T04:30:29;0.60;81.60
48579;DHT22;34357;51.948;6.132;2023-04-06T04:32:55;0.60;81.60
48579;DHT22;34357;51.948;6.132;2023-04-06T04:35:23;0.60;81.60
48579;DHT22;34357;51.948;6.132;2023-04-06T04:37:49;0.60;81.70
48579;DHT22;34357;51.948;6.132;2023-04-06T04:40:15;0.60;81.70
48579;DHT22;34357;51.948;6.132;2023-04-06T04:43:02;0.60;81.80
48579;DHT22;34357;51.948;6.132;2023-04-06T04:45:31;0.60;81.80
48579;DHT22;34357;51.948;6.132;2023-04-06T04:48:03;0.60;81.80
48579;DHT22;34357;51.948;6.132;2023-04-06T04:50:39;0.60;81.90
48579;DHT22;34357;51.948;6.132;2023-04-06T04:53:05;0.70;82.00
48579;DHT22;34357;51.948;6.132;2023-04-06T04:55:32;0.70;82.00
48579;DHT22;34357;51.948;6.132;2023-04-06T04:57:59;0.70;82.00
48579;DHT22;34357;51.948;6.132;2023-04-06T05:00:39;0.80;82.00
48579;DHT22;34357;51.948;6.132;2023-04-06T05:03:05;0.80;82.10
48579;DHT22;34357;51.948;6.132;2023-04-06T05:05:35;0.80;81.90
48579;DHT22;34357;51.948;6.132;2023-04-06T05:08:02;0.80;81.80
48579;DHT22;34357;51.948;6.132;2023-04-06T05:10:41;0.90;81.60
48579;DHT22;34357;51.948;6.132;2023-04-06T05:13:07;1.00;81.30
48579;DHT22;34357;51.948;6.132;2023-04-06T05:15:33;1.10;81.30
48579;DHT22;34357;51.948;6.132;2023-04-06T05:18:08;1.10;81.20
48579;DHT22;34357;51.948;6.132;2023-04-06T05:20:35;1.20;81.10
48579;DHT22;34357;51.948;6.132;2023-04-06T05:23:01;1.40;80.90
48579;DHT22;34357;51.948;6.132;2023-04-06T05:25:28;1.40;80.70
48579;DHT22;34357;51.948;6.132;2023-04-06T05:27:57;1.50;80.20
48579;DHT22;34357;51.948;6.132;2023-04-06T05:30:28;1.50;80.20
48579;DHT22;34357;51.948;6.132;2023-04-06T05:32:54;1.60;80.10
48579;DHT22;34357;51.948;6.132;2023-04-06T05:35:22;1.70;80.10
48579;DHT22;34357;51.948;6.132;2023-04-06T05:37:51;1.80;79.70
48579;DHT22;34357;51.948;6.132;2023-04-06T05:40:20;1.90;79.30
48579;DHT22;34357;51.948;6.132;2023-04-06T05:42:46;1.90;79.30
48579;DHT22;34357;51.948;6.132;2023-04-06T05:45:12;2.00;79.00
48579;DHT22;34357;51.948;6.132;2023-04-06T05:47:44;2.20;79.30
48579;DHT22;34357;51.948;6.132;2023-04-06T05:50:19;2.30;79.10
48579;DHT22;34357;51.948;6.132;2023-04-06T05:52:45;2.50;78.60
48579;DHT22;34357;51.948;6.132;2023-04-06T05:55:14;2.70;77.10
48579;DHT22;34357;51.948;6.132;2023-04-06T05:57:43;2.80;76.50
48579;DHT22;34357;51.948;6.132;2023-04-06T06:00:09;3.10;75.70
48579;DHT22;34357;51.948;6.132;2023-04-06T06:02:42;3.30;75.60
48579;DHT22;34357;51.948;6.132;2023-04-06T06:05:14;3.60;75.70
48579;DHT22;34357;51.948;6.132;2023-04-06T06:07:41;3.90;74.70
48579;DHT22;34357;51.948;6.132;2023-04-06T06:10:07;4.10;73.70
48579;DHT22;34357;51.948;6.132;2023-04-06T06:12:35;4.50;72.90
48579;DHT22;34357;51.948;6.132;2023-04-06T06:15:02;4.80;71.10
48579;DHT22;34357;51.948;6.132;2023-04-06T06:17:29;5.10;69.50
48579;DHT22;34357;51.948;6.132;2023-04-06T06:19:56;5.40;68.20
48579;DHT22;34357;51.948;6.132;2023-04-06T06:22:22;5.70;67.80
48579;DHT22;34357;51.948;6.132;2023-04-06T06:24:48;5.90;65.90
48579;DHT22;34357;51.948;6.132;2023-04-06T06:27:17;6.10;65.10
48579;DHT22;34357;51.948;6.132;2023-04-06T06:29:43;6.00;64.80
48579;DHT22;34357;51.948;6.132;2023-04-06T06:32:10;6.00;65.50
48579;DHT22;34357;51.948;6.132;2023-04-06T06:34:37;6.20;64.40
48579;DHT22;34357;51.948;6.132;2023-04-06T06:37:05;6.40;63.90
48579;DHT22;34357;51.948;6.132;2023-04-06T06:39:31;6.60;63.00
48579;DHT22;34357;51.948;6.132;2023-04-06T06:41:57;6.60;62.90
48579;DHT22;34357;51.948;6.132;2023-04-06T06:44:42;6.40;62.90
48579;DHT22;34357;51.948;6.132;2023-04-06T06:47:08;6.10;64.00
48579;DHT22;34357;51.948;6.132;2023-04-06T06:49:34;6.00;64.70
48579;DHT22;34357;51.948;6.132;2023-04-06T06:52:00;5.90;63.50
48579;DHT22;34357;51.948;6.132;2023-04-06T06:54:26;5.70;63.60
48579;DHT22;34357;51.948;6.132;2023-04-06T06:56:51;5.70;63.30
48579;DHT22;34357;51.948;6.132;2023-04-06T06:59:17;5.70;63.00
48579;DHT22;34357;51.948;6.132;2023-04-06T07:01:43;5.60;63.00
48579;DHT22;34357;51.948;6.132;2023-04-06T07:04:09;5.80;63.30
48579;DHT22;34357;51.948;6.132;2023-04-06T07:06:35;6.10;61.90
48579;DHT22;34357;51.948;6.132;2023-04-06T07:09:02;6.40;61.00
48579;DHT22;34357;51.948;6.132;2023-04-06T07:11:29;6.70;59.80
48579;DHT22;34357;51.948;6.132;2023-04-06T07:13:55;6.90;59.00
48579;DHT22;34357;51.948;6.132;2023-04-06T07:16:21;7.10;58.90
48579;DHT22;34357;51.948;6.132;2023-04-06T07:18:47;7.40;59.40
48579;DHT22;34357;51.948;6.132;2023-04-06T07:21:13;7.40;57.30
48579;DHT22;34357;51.948;6.132;2023-04-06T07:23:39;7.40;57.80
48579;DHT22;34357;51.948;6.132;2023-04-06T07:26:06;7.40;57.20
48579;DHT22;34357;51.948;6.132;2023-04-06T07:28:31;7.50;58.30
48579;DHT22;34357;51.948;6.132;2023-04-06T07:30:59;7.60;57.50
48579;DHT22;34357;51.948;6.132;2023-04-06T07:33:25;7.40;56.50
48579;DHT22;34357;51.948;6.132;2023-04-06T07:35:56;7.50;56.90
48579;DHT22;34357;51.948;6.132;2023-04-06T07:38:22;7.80;56.80
48579;DHT22;34357;51.948;6.132;2023-04-06T07:40:50;8.10;56.60
48579;DHT22;34357;51.948;6.132;2023-04-06T07:43:16;8.10;54.30
48579;DHT22;34357;51.948;6.132;2023-04-06T07:45:42;8.10;54.90
48579;DHT22;34357;51.948;6.132;2023-04-06T07:48:08;8.10;54.50
48579;DHT22;34357;51.948;6.132;2023-04-06T07:50:34;8.20;54.90
48579;DHT22;34357;51.948;6.132;2023-04-06T07:53:01;8.20;54.60
48579;DHT22;34357;51.948;6.132;2023-04-06T07:55:29;8.30;54.30
48579;DHT22;34357;51.948;6.132;2023-04-06T07:57:54;8.60;54.20
48579;DHT22;34357;51.948;6.132;2023-04-06T08:00:20;8.80;53.90
48579;DHT22;34357;51.948;6.132;2023-04-06T08:02:46;8.90;53.40
48579;DHT22;34357;51.948;6.132;2023-04-06T08:05:12;8.80;52.60
48579;DHT22;34357;51.948;6.132;2023-04-06T08:07:38;8.80;53.50
48579;DHT22;34357;51.948;6.132;2023-04-06T08:10:04;8.90;54.90
48579;DHT22;34357;51.948;6.132;2023-04-06T08:12:30;8.90;53.20
48579;DHT22;34357;51.948;6.132;2023-04-06T08:14:55;8.90;53.50
48579;DHT22;34357;51.948;6.132;2023-04-06T08:17:22;8.90;53.20
48579;DHT22;34357;51.948;6.132;2023-04-06T08:19:48;9.10;53.70
48579;DHT22;34357;51.948;6.132;2023-04-06T08:22:13;9.10;53.10
48579;DHT22;34357;51.948;6.132;2023-04-06T08:24:39;8.90;54.20
48579;DHT22;34357;51.948;6.132;2023-04-06T08:27:05;8.80;53.70
48579;DHT22;34357;51.948;6.132;2023-04-06T08:29:30;8.70;54.90
48579;DHT22;34357;51.948;6.132;2023-04-06T08:31:57;8.90;55.30
48579;DHT22;34357;51.948;6.132;2023-04-06T08:34:23;8.80;55.00
48579;DHT22;34357;51.948;6.132;2023-04-06T08:36:49;8.80;54.90
48579;DHT22;34357;51.948;6.132;2023-04-06T08:39:15;8.80;55.80
48579;DHT22;34357;51.948;6.132;2023-04-06T08:41:44;9.00;55.90
48579;DHT22;34357;51.948;6.132;2023-04-06T08:44:11;9.20;55.40
48579;DHT22;34357;51.948;6.132;2023-04-06T08:46:37;9.10;55.30
48579;DHT22;34357;51.948;6.132;2023-04-06T08:49:03;9.00;54.70
48579;DHT22;34357;51.948;6.132;2023-04-06T08:51:32;9.00;54.30
48579;DHT22;34357;51.948;6.132;2023-04-06T08:53:59;9.00;55.20
48579;DHT22;34357;51.948;6.132;2023-04-06T08:56:26;9.20;54.60
48579;DHT22;34357;51.948;6.132;2023-04-06T08:58:53;9.20;54.80
48579;DHT22;34357;51.948;6.132;2023-04-06T09:01:26;9.20;54.50
48579;DHT22;34357;51.948;6.132;2023-04-06T09:03:59;9.40;54.60
48579;DHT22;34357;51.948;6.132;2023-04-06T09:06:30;9.40;53.80
48579;DHT22;34357;51.948;6.132;2023-04-06T09:08:56;9.60;54.70
48579;DHT22;34357;51.948;6.132;2023-04-06T09:11:23;9.60;53.60
48579;DHT22;34357;51.948;6.132;2023-04-06T09:13:51;9.60;54.00
48579;DHT22;34357;51.948;6.132;2023-04-06T09:16:18;9.80;54.50
48579;DHT22;34357;51.948;6.132;2023-04-06T09:18:44;9.90;53.90
48579;DHT22;34357;51.948;6.132;2023-04-06T09:21:10;9.90;54.00
48579;DHT22;34357;51.948;6.132;2023-04-06T09:23:37;10.00;54.20
48579;DHT22;34357;51.948;6.132;2023-04-06T09:26:17;10.40;54.20
48579;DHT22;34357;51.948;6.132;2023-04-06T09:28:55;10.30;52.80
48579;DHT22;34357;51.948;6.132;2023-04-06T09:31:26;10.40;53.60
48579;DHT22;34357;51.948;6.132;2023-04-06T09:33:52;10.60;51.40
48579;DHT22;34357;51.948;6.132;2023-04-06T09:36:19;10.50;51.50
48579;DHT22;34357;51.948;6.132;2023-04-06T09:38:56;10.60;52.60
48579;DHT22;34357;51.948;6.132;2023-04-06T09:41:40;10.80;54.00
48579;DHT22;34357;51.948;6.132;2023-04-06T09:44:08;10.90;52.30
48579;DHT22;34357;51.948;6.132;2023-04-06T09:46:35;11.00;50.80
48579;DHT22;34357;51.948;6.132;2023-04-06T09:49:02;11.10;51.60
48579;DHT22;34357;51.948;6.132;2023-04-06T09:51:37;11.30;51.60
48579;DHT22;34357;51.948;6.132;2023-04-06T09:54:04;11.60;51.90
48579;DHT22;34357;51.948;6.132;2023-04-06T09:56:45;11.40;50.50
48579;DHT22;34357;51.948;6.132;2023-04-06T10:01:59;11.40;50.30
48579;DHT22;34357;51.948;6.132;2023-04-06T10:07:02;10.90;51.50
48579;DHT22;34357;51.948;6.132;2023-04-06T10:09:29;10.90;51.90
48579;DHT22;34357;51.948;6.132;2023-04-06T10:12:05;10.80;53.80
48579;DHT22;34357;51.948;6.132;2023-04-06T10:14:34;10.90;52.70
48579;DHT22;34357;51.948;6.132;2023-04-06T10:17:04;11.30;53.20
48579;DHT22;34357;51.948;6.132;2023-04-06T10:19:53;11.40;51.90
48579;DHT22;34357;51.948;6.132;2023-04-06T10:22:29;11.50;51.20
48579;DHT22;34357;51.948;6.132;2023-04-06T10:24:58;11.40;51.00
48579;DHT22;34357;51.948;6.132;2023-04-06T10:27:30;11.30;51.20
48579;DHT22;34357;51.948;6.132;2023-04-06T10:30:06;11.50;52.70
48579;DHT22;34357;51.948;6.132;2023-04-06T10:35:06;11.60;50.90
48579;DHT22;34357;51.948;6.132;2023-04-06T10:37:52;11.70;50.90
48579;DHT22;34357;51.948;6.132;2023-04-06T10:40:19;11.60;51.10
48579;DHT22;34357;51.948;6.132;2023-04-06T10:42:45;11.70;50.90
48579;DHT22;34357;51.948;6.132;2023-04-06T10:45:22;11.70;50.00
48579;DHT22;34357;51.948;6.132;2023-04-06T10:47:49;11.50;49.30
48579;DHT22;34357;51.948;6.132;2023-04-06T10:50:16;11.80;50.40
48579;DHT22;34357;51.948;6.132;2023-04-06T10:52:45;12.00;50.20
48579;DHT22;34357;51.948;6.132;2023-04-06T10:55:16;12.30;49.40
48579;DHT22;34357;51.948;6.132;2023-04-06T10:57:42;12.30;49.30
48579;DHT22;34357;51.948;6.132;2023-04-06T11:00:11;11.80;48.90
48579;DHT22;34357;51.948;6.132;2023-04-06T11:02:37;12.00;50.00
48579;DHT22;34357;51.948;6.132;2023-04-06T11:05:03;12.10;50.10
48579;DHT22;34357;51.948;6.132;2023-04-06T11:07:29;12.20;50.50
48579;DHT22;34357;51.948;6.132;2023-04-06T11:09:56;12.10;50.50
48579;DHT22;34357;51.948;6.132;2023-04-06T11:12:26;12.10;50.60
48579;DHT22;34357;51.948;6.132;2023-04-06T11:14:56;12.00;51.40
48579;DHT22;34357;51.948;6.132;2023-04-06T11:17:28;12.10;51.90
48579;DHT22;34357;51.948;6.132;2023-04-06T11:19:55;12.00;50.80
48579;DHT22;34357;51.948;6.132;2023-04-06T11:22:21;12.10;52.10
48579;DHT22;34357;51.948;6.132;2023-04-06T11:24:47;12.30;52.40
48579;DHT22;34357;51.948;6.132;2023-04-06T11:27:14;12.30;51.70
48579;DHT22;34357;51.948;6.132;2023-04-06T11:29:44;12.30;52.90
48579;DHT22;34357;51.948;6.132;2023-04-06T11:32:20;12.20;51.00
48579;DHT22;34357;51.948;6.132;2023-04-06T11:34:47;12.60;52.80
48579;DHT22;34357;51.948;6.132;2023-04-06T11:37:14;12.60;51.20
48579;DHT22;34357;51.948;6.132;2023-04-06T11:39:54;12.60;51.00
48579;DHT22;34357;51.948;6.132;2023-04-06T11:42:23;12.80;51.70
48579;DHT22;34357;51.948;6.132;2023-04-06T11:44:51;12.50;51.10
48579;DHT22;34357;51.948;6.132;2023-04-06T11:47:18;12.40;52.60
48579;DHT22;34357;51.948;6.132;2023-04-06T11:49:45;12.40;51.90
48579;DHT22;34357;51.948;6.132;2023-04-06T11:54:40;12.80;52.40
48579;DHT22;34357;51.948;6.132;2023-04-06T11:57:08;12.90;51.90
48579;DHT22;34357;51.948;6.132;2023-04-06T11:59:35;12.80;51.80
48579;DHT22;34357;51.948;6.132;2023-04-06T12:02:02;12.80;51.20
48579;DHT22;34357;51.948;6.132;2023-04-06T12:04:28;12.50;52.20
48579;DHT22;34357;51.948;6.132;2023-04-06T12:06:55;12.60;52.70
48579;DHT22;34357;51.948;6.132;2023-04-06T12:09:20;12.50;53.00
48579;DHT22;34357;51.948;6.132;2023-04-06T12:11:47;12.40;53.20
48579;DHT22;34357;51.948;6.132;2023-04-06T12:14:12;12.40;54.50
48579;DHT22;34357;51.948;6.132;2023-04-06T12:16:39;12.40;54.90
48579;DHT22;34357;51.948;6.132;2023-04-06T12:19:05;12.20;55.20
48579;DHT22;34357;51.948;6.132;2023-04-06T12:21:31;12.20;56.40
48579;DHT22;34357;51.948;6.132;2023-04-06T12:23:58;11.90;58.60
48579;DHT22;34357;51.948;6.132;2023-04-06T12:26:24;11.90;59.00
48579;DHT22;34357;51.948;6.132;2023-04-06T12:28:51;11.70;60.60
48579;DHT22;34357;51.948;6.132;2023-04-06T12:31:23;11.70;60.10
48579;DHT22;34357;51.948;6.132;2023-04-06T12:33:51;11.50;59.30
48579;DHT22;34357;51.948;6.132;2023-04-06T12:36:19;11.30;60.60
48579;DHT22;34357;51.948;6.132;2023-04-06T12:38:47;11.30;61.50
48579;DHT22;34357;51.948;6.132;2023-04-06T12:41:13;11.20;61.90
48579;DHT22;34357;51.948;6.132;2023-04-06T12:43:41;11.30;63.50
48579;DHT22;34357;51.948;6.132;2023-04-06T12:46:06;11.10;65.50
48579;DHT22;34357;51.948;6.132;2023-04-06T12:48:32;11.10;67.30
48579;DHT22;34357;51.948;6.132;2023-04-06T12:50:59;10.90;69.30
48579;DHT22;34357;51.948;6.132;2023-04-06T12:53:26;10.60;71.10
48579;DHT22;34357;51.948;6.132;2023-04-06T12:55:52;10.60;73.10
48579;DHT22;34357;51.948;6.132;2023-04-06T12:58:19;10.40;73.80
48579;DHT22;34357;51.948;6.132;2023-04-06T13:00:44;10.50;74.60
48579;DHT22;34357;51.948;6.132;2023-04-06T13:03:10;10.30;74.20
48579;DHT22;34357;51.948;6.132;2023-04-06T13:05:37;10.10;75.60
48579;DHT22;34357;51.948;6.132;2023-04-06T13:08:08;9.90;76.00
48579;DHT22;34357;51.948;6.132;2023-04-06T13:10:34;9.80;76.10
48579;DHT22;34357;51.948;6.132;2023-04-06T13:13:00;9.70;75.20
48579;DHT22;34357;51.948;6.132;2023-04-06T13:15:28;9.70;76.00
48579;DHT22;34357;51.948;6.132;2023-04-06T13:17:54;9.60;76.60
48579;DHT22;34357;51.948;6.132;2023-04-06T13:20:20;9.60;77.70
48579;DHT22;34357;51.948;6.132;2023-04-06T13:22:45;9.60;76.70
48579;DHT22;34357;51.948;6.132;2023-04-06T13:25:11;9.40;77.10
48579;DHT22;34357;51.948;6.132;2023-04-06T13:27:37;9.40;76.90
48579;DHT22;34357;51.948;6.132;2023-04-06T13:30:03;9.40;77.80
48579;DHT22;34357;51.948;6.132;2023-04-06T13:32:30;9.40;78.00
48579;DHT22;34357;51.948;6.132;2023-04-06T13:34:56;9.50;78.60
48579;DHT22;34357;51.948;6.132;2023-04-06T13:37:22;9.60;78.90
48579;DHT22;34357;51.948;6.132;2023-04-06T13:39:48;9.40;79.20
48579;DHT22;34357;51.948;6.132;2023-04-06T13:42:13;9.50;79.70
48579;DHT22;34357;51.948;6.132;2023-04-06T13:44:39;9.40;79.10
48579;DHT22;34357;51.948;6.132;2023-04-06T13:47:05;9.40;79.90
48579;DHT22;34357;51.948;6.132;2023-04-06T13:49:31;9.40;80.00
48579;DHT22;34357;51.948;6.132;2023-04-06T13:51:58;9.10;78.90
48579;DHT22;34357;51.948;6.132;2023-04-06T13:54:23;9.00;80.80
48579;DHT22;34357;51.948;6.132;2023-04-06T13:56:51;9.00;81.40
48579;DHT22;34357;51.948;6.132;2023-04-06T13:59:17;8.90;80.80
48579;DHT22;34357;51.948;6.132;2023-04-06T14:01:43;8.90;81.60
48579;DHT22;34357;51.948;6.132;2023-04-06T14:04:08;8.90;81.20
48579;DHT22;34357;51.948;6.132;2023-04-06T14:06:34;8.90;82.20
48579;DHT22;34357;51.948;6.132;2023-04-06T14:09:00;8.90;82.10
48579;DHT22;34357;51.948;6.132;2023-04-06T14:11:26;8.80;81.80
48579;DHT22;34357;51.948;6.132;2023-04-06T14:13:52;8.70;82.70
48579;DHT22;34357;51.948;6.132;2023-04-06T14:16:18;8.70;82.30
48579;DHT22;34357;51.948;6.132;2023-04-06T14:18:45;8.70;83.00
48579;DHT22;34357;51.948;6.132;2023-04-06T14:21:10;8.70;83.40
48579;DHT22;34357;51.948;6.132;2023-04-06T14:23:36;8.70;82.80
48579;DHT22;34357;51.948;6.132;2023-04-06T14:26:07;8.70;82.50
48579;DHT22;34357;51.948;6.132;2023-04-06T14:28:35;8.60;82.70
48579;DHT22;34357;51.948;6.132;2023-04-06T14:31:08;8.70;83.00
48579;DHT22;34357;51.948;6.132;2023-04-06T14:33:35;8.70;82.50
48579;DHT22;34357;51.948;6.132;2023-04-06T14:36:03;8.70;82.60
48579;DHT22;34357;51.948;6.132;2023-04-06T14:38:29;8.60;82.70
48579;DHT22;34357;51.948;6.132;2023-04-06T14:40:55;8.60;82.90
48579;DHT22;34357;51.948;6.132;2023-04-06T14:43:21;8.60;83.10
48579;DHT22;34357;51.948;6.132;2023-04-06T14:45:47;8.60;83.80
48579;DHT22;34357;51.948;6.132;2023-04-06T14:48:13;8.50;83.90
48579;DHT22;34357;51.948;6.132;2023-04-06T14:50:41;8.50;84.40
48579;DHT22;34357;51.948;6.132;2023-04-06T14:53:11;8.50;84.80
48579;DHT22;34357;51.948;6.132;2023-04-06T14:55:40;8.40;84.40
48579;DHT22;34357;51.948;6.132;2023-04-06T14:58:06;8.40;84.80
48579;DHT22;34357;51.948;6.132;2023-04-06T15:00:32;8.30;84.40
48579;DHT22;34357;51.948;6.132;2023-04-06T15:02:58;8.20;84.60
48579;DHT22;34357;51.948;6.132;2023-04-06T15:05:23;8.20;84.90
48579;DHT22;34357;51.948;6.132;2023-04-06T15:07:50;8.30;85.30
48579;DHT22;34357;51.948;6.132;2023-04-06T15:10:16;8.20;85.00
48579;DHT22;34357;51.948;6.132;2023-04-06T15:12:42;8.20;85.00
48579;DHT22;34357;51.948;6.132;2023-04-06T15:15:08;8.10;85.30
48579;DHT22;34357;51.948;6.132;2023-04-06T15:17:34;8.20;86.10
48579;DHT22;34357;51.948;6.132;2023-04-06T15:19:59;8.10;86.30
48579;DHT22;34357;51.948;6.132;2023-04-06T15:22:25;8.20;86.40
48579;DHT22;34357;51.948;6.132;2023-04-06T15:24:51;8.10;86.50
48579;DHT22;34357;51.948;6.132;2023-04-06T15:27:17;8.00;86.30
48579;DHT22;34357;51.948;6.132;2023-04-06T15:29:42;8.00;86.50
48579;DHT22;34357;51.948;6.132;2023-04-06T15:32:08;8.00;86.80
48579;DHT22;34357;51.948;6.132;2023-04-06T15:34:34;8.10;87.20
48579;DHT22;34357;51.948;6.132;2023-04-06T15:37:03;8.10;87.50
48579;DHT22;34357;51.948;6.132;2023-04-06T15:39:30;8.10;87.20
48579;DHT22;34357;51.948;6.132;2023-04-06T15:41:56;8.00;87.30
48579;DHT22;34357;51.948;6.132;2023-04-06T15:44:22;8.00;87.40
48579;DHT22;34357;51.948;6.132;2023-04-06T15:46:48;7.90;87.30
48579;DHT22;34357;51.948;6.132;2023-04-06T15:49:14;7.90;87.70
48579;DHT22;34357;51.948;6.132;2023-04-06T15:51:39;8.00;88.00
48579;DHT22;34357;51.948;6.132;2023-04-06T15:54:05;8.00;88.20
48579;DHT22;34357;51.948;6.132;2023-04-06T15:56:32;8.00;88.40